Time;durP1;ratioP1;P1;durP2;ratioP2;P2;SDS_P1;SDS_P2;PMS_P1;PMS_P2;Temp;Humidity;BMP_temperature;BMP_pressure;BME280_temperature;BME280_humidity;BME280_pressure;Samples;Min_cycle;Max_cycle;Signal;HPM_P1;HPM_P2
2022/01/18 00:02:02;;;;;;;12.48;4.70;;;;;;;4.34;100.00;102704.13;5115526;27;20051;-83
2022/01/18 00:04:29;;;;;;;12.38;5.65;;;;;;;4.45;100.00;102693.97;5115423;27;20060;-83
2022/01/18 00:06:56;;;;;;;13.20;5.70;;;;;;;4.57;100.00;102699.38;5115358;27;20134;-83
2022/01/18 00:09:27;;;;;;;16.88;5.28;;;;;;;4.69;100.00;102693.56;5139046;27;20076;-83
2022/01/18 00:12:10;;;;;;;12.05;4.30;;;;;;;4.89;100.00;102699.09;5114794;27;20047;-83
2022/01/18 00:14:43;;;;;;;10.93;4.15;;;;;;;5.05;100.00;102653.50;5133523;27;20503;-84
2022/01/18 00:17:19;;;;;;;;;;;;;;;5.41;100.00;102691.28;5115687;27;20051;-83
2022/01/18 00:19:55;;;;;;;11.05;4.78;;;;;;;4.85;100.00;102618.53;5135892;27;20306;-83
2022/01/18 00:22:25;;;;;;;14.10;3.83;;;;;;;5.18;100.00;102640.72;5112990;28;20044;-84
2022/01/18 00:24:52;;;;;;;8.50;3.35;;;;;;;5.40;100.00;102679.16;5112997;28;20047;-83
2022/01/18 00:27:25;;;;;;;9.63;3.53;;;;;;;5.29;100.00;102678.09;5112523;28;20050;-84
2022/01/18 00:30:11;;;;;;;9.73;3.47;;;;;;;5.61;100.00;102675.09;5099647;27;20066;-84
2022/01/18 00:32:59;;;;;;;10.48;4.03;;;;;;;5.43;100.00;102670.50;5133428;27;20053;-83
2022/01/18 00:35:32;;;;;;;10.93;3.88;;;;;;;5.49;100.00;102660.22;5114413;27;20488;-82
2022/01/18 00:37:59;;;;;;;9.93;3.83;;;;;;;5.55;100.00;102665.50;5142334;27;20057;-83
2022/01/18 00:40:26;;;;;;;10.25;3.67;;;;;;;5.65;100.00;102671.72;5142441;27;20100;-83
2022/01/18 00:42:53;;;;;;;10.82;4.07;;;;;;;5.51;100.00;102650.72;5132668;27;20050;-83
2022/01/18 00:45:20;;;;;;;10.43;3.97;;;;;;;5.35;100.00;102628.84;5132282;27;20047;-83
2022/01/18 00:47:48;;;;;;;9.88;3.58;;;;;;;5.40;100.00;102626.28;5133185;27;20431;-84
2022/01/18 00:50:15;;;;;;;10.55;3.78;;;;;;;5.61;100.00;102678.59;5131632;27;20046;-83
2022/01/18 00:52:43;;;;;;;7.55;2.90;;;;;;;5.67;100.00;102667.41;5114973;28;20043;-84
2022/01/18 00:55:13;;;;;;;7.78;3.08;;;;;;;5.76;100.00;102664.91;5133082;28;20043;-84
2022/01/18 00:57:40;;;;;;;12.07;4.35;;;;;;;5.51;100.00;102680.16;5114756;28;20377;-84
2022/01/18 01:00:07;;;;;;;7.28;2.88;;;;;;;5.62;100.00;102666.47;5103814;28;20052;-84
2022/01/18 01:02:34;;;;;;;8.98;3.53;;;;;;;5.48;100.00;102664.53;5114370;28;20377;-84
2022/01/18 01:05:02;;;;;;;9.63;3.92;;;;;;;5.60;100.00;102695.03;5132828;28;20074;-84
2022/01/18 01:07:29;;;;;;;10.63;4.68;;;;;;;5.34;100.00;102666.06;5114220;28;20058;-84
2022/01/18 01:10:08;;;;;;;8.75;3.78;;;;;;;5.10;100.00;102656.19;5115517;28;20139;-84
2022/01/18 01:12:35;;;;;;;9.57;3.88;;;;;;;5.10;100.00;102670.03;5139711;27;20046;-84
2022/01/18 01:15:09;;;;;;;8.40;3.38;;;;;;;5.05;100.00;102669.06;5153766;27;20488;-83
2022/01/18 01:18:12;;;;;;;7.15;2.88;;;;;;;4.92;100.00;102636.84;5153655;27;20400;-84
2022/01/18 01:45:25;;;;;;;8.65;2.85;;;;;;;4.73;100.00;102674.59;5132340;28;20447;-83
2022/01/18 01:47:54;;;;;;;6.03;2.00;;;;;;;4.89;100.00;102704.28;5131744;28;20066;-84
2022/01/18 01:50:24;;;;;;;7.97;2.53;;;;;;;4.71;100.00;102683.19;5127985;27;20047;-83
2022/01/18 01:52:54;;;;;;;6.70;2.47;;;;;;;4.58;100.00;102689.88;5118196;27;20051;-83
2022/01/18 01:55:23;;;;;;;5.70;1.90;;;;;;;4.28;100.00;102636.56;5135901;27;20058;-83
2022/01/18 01:57:50;;;;;;;7.82;2.80;;;;;;;4.38;100.00;102697.28;5135925;27;20080;-82
2022/01/18 02:00:20;;;;;;;6.05;2.33;;;;;;;4.12;100.00;102671.69;5126864;27;20117;-83
2022/01/18 02:02:48;;;;;;;7.13;2.53;;;;;;;3.99;100.00;102670.59;5097421;28;20044;-83
2022/01/18 02:05:15;;;;;;;7.38;2.40;;;;;;;4.01;100.00;102662.84;5097647;28;20078;-83
2022/01/18 02:07:42;;;;;;;6.97;2.65;;;;;;;4.23;100.00;102671.91;5107554;27;20047;-83
2022/01/18 02:10:10;;;;;;;7.10;2.50;;;;;;;4.22;100.00;102648.56;5140257;27;20062;-83
2022/01/18 02:12:38;;;;;;;7.35;2.50;;;;;;;4.26;100.00;102679.75;5115377;28;20579;-83
2022/01/18 02:15:18;;;;;;;6.47;2.38;;;;;;;4.27;100.00;102675.47;5097184;28;20047;-83
2022/01/18 02:23:21;;;;;;;9.55;2.70;;;;;;;4.02;100.00;102677.56;5124040;27;20139;-83
2022/01/18 02:25:49;;;;;;;8.38;2.67;;;;;;;3.98;100.00;102674.03;5116887;27;20054;-83
2022/01/18 02:28:19;;;;;;;7.85;2.55;;;;;;;3.94;100.00;102676.53;5126533;27;20047;-84
2022/01/18 02:30:46;;;;;;;7.03;2.42;;;;;;;3.66;100.00;102655.19;5111774;27;20112;-83
2022/01/18 02:33:14;;;;;;;6.82;2.40;;;;;;;3.79;100.00;102682.25;5115139;28;20051;-83
2022/01/18 02:35:42;;;;;;;6.00;2.40;;;;;;;3.78;100.00;102681.38;5115124;28;20052;-83
2022/01/18 02:38:08;;;;;;;7.93;2.85;;;;;;;3.48;100.00;102660.84;5114483;28;20044;-83
2022/01/18 02:40:36;;;;;;;10.48;3.25;;;;;;;3.48;100.00;102683.28;5096671;28;20046;-83
2022/01/18 02:45:55;;;;;;;8.73;2.80;;;;;;;3.29;100.00;102671.63;5115235;28;20052;-83
2022/01/18 02:48:23;;;;;;;7.22;2.58;;;;;;;3.32;100.00;102664.78;5114221;27;20051;-84
2022/01/18 02:50:50;;;;;;;8.15;2.97;;;;;;;3.10;100.00;102647.00;5140680;27;20070;-83
2022/01/18 02:53:17;;;;;;;9.10;3.35;;;;;;;3.21;100.00;102641.25;5134494;27;20396;-83
2022/01/18 02:55:55;;;;;;;9.13;3.20;;;;;;;3.19;100.00;102636.88;5117479;27;20077;-83
2022/01/18 02:58:34;;;;;;;9.18;3.53;;;;;;;2.89;100.00;102627.53;5134166;27;20039;-84
2022/01/18 03:03:33;;;;;;;6.90;2.10;;;;;;;2.90;100.00;102581.84;5134331;27;20103;-84
2022/01/18 03:06:02;;;;;;;7.80;2.78;;;;;;;3.13;100.00;102618.59;5116099;27;20138;-84
2022/01/18 03:08:30;;;;;;;7.03;2.42;;;;;;;3.30;100.00;102656.13;5144241;27;20049;-84
2022/01/18 03:10:57;;;;;;;6.88;2.40;;;;;;;3.31;100.00;102649.22;5122121;27;20122;-84
2022/01/18 03:13:24;;;;;;;6.43;2.63;;;;;;;3.22;100.00;102600.69;5134645;27;20134;-83
2022/01/18 03:15:51;;;;;;;6.63;2.55;;;;;;;3.20;100.00;102628.25;5134947;27;20054;-84
2022/01/18 03:18:18;;;;;;;6.43;2.42;;;;;;;3.07;100.00;102605.53;5117763;27;20381;-83
2022/01/18 03:20:45;;;;;;;6.40;2.38;;;;;;;3.00;100.00;102591.56;5127435;27;20408;-84
2022/01/18 03:23:19;;;;;;;7.00;2.45;;;;;;;3.39;100.00;102632.16;5115146;27;20703;-83
2022/01/18 03:25:58;;;;;;;7.05;2.45;;;;;;;3.28;100.00;102615.50;5116517;27;20066;-84
2022/01/18 03:28:27;;;;;;;5.60;2.17;;;;;;;3.32;100.00;102631.13;5121386;27;20051;-83
2022/01/18 03:30:57;;;;;;;6.45;2.40;;;;;;;3.30;100.00;102629.38;5122243;27;20071;-84
2022/01/18 03:33:30;;;;;;;5.85;2.10;;;;;;;3.29;100.00;102620.69;5134440;27;20492;-84
2022/01/18 03:35:57;;;;;;;6.57;2.33;;;;;;;3.17;100.00;102610.06;5115910;27;20141;-83
2022/01/18 03:38:29;;;;;;;6.25;2.30;;;;;;;3.34;100.00;102597.50;5115714;27;20046;-84
2022/01/18 03:41:01;;;;;;;7.68;2.85;;;;;;;3.27;100.00;102612.03;5133228;27;20138;-84
2022/01/18 03:43:38;;;;;;;4.57;1.80;;;;;;;2.87;100.00;102554.19;5115417;27;20055;-83
2022/01/18 03:46:05;;;;;;;5.28;1.85;;;;;;;2.93;100.00;102550.88;5136072;27;20170;-83
2022/01/18 03:48:36;;;;;;;6.28;2.63;;;;;;;3.15;100.00;102602.28;5154765;27;20468;-83
2022/01/18 03:51:04;;;;;;;4.90;2.13;;;;;;;2.89;100.00;102593.03;5120015;27;20047;-83
2022/01/18 03:53:32;;;;;;;7.90;2.22;;;;;;;2.96;100.00;102576.81;5114740;27;20134;-83
2022/01/18 03:55:59;;;;;;;6.28;2.28;;;;;;;2.90;100.00;102569.75;5115830;27;20682;-84
2022/01/18 03:58:26;;;;;;;5.57;1.80;;;;;;;3.07;100.00;102575.34;5115784;27;20767;-84
2022/01/18 04:00:53;;;;;;;7.00;2.30;;;;;;;3.00;100.00;102565.69;5114746;27;20057;-84
2022/01/18 04:03:21;;;;;;;6.38;2.45;;;;;;;2.98;100.00;102572.56;5115856;27;20047;-84
2022/01/18 04:05:48;;;;;;;5.18;1.92;;;;;;;3.13;100.00;102579.78;5115887;27;20053;-84
2022/01/18 04:08:14;;;;;;;5.22;2.03;;;;;;;3.15;100.00;102567.75;5115518;27;20492;-84
2022/01/18 04:10:41;;;;;;;6.97;2.05;;;;;;;3.18;100.00;102565.22;5112103;28;20052;-84
2022/01/18 04:13:08;;;;;;;5.93;2.30;;;;;;;2.55;100.00;102519.78;5115732;27;20046;-84
2022/01/18 04:15:35;;;;;;;7.38;2.10;;;;;;;2.94;100.00;102553.50;5133324;27;20050;-84
2022/01/18 04:18:16;;;;;;;5.82;2.10;;;;;;;2.92;100.00;102564.63;5132807;27;20131;-83
2022/01/18 04:28:58;;;;;;;5.43;1.95;;;;;;;2.80;100.00;102541.94;5118444;27;20052;-84
2022/01/18 04:31:27;;;;;;;6.95;2.00;;;;;;;2.80;100.00;102541.94;5113078;27;20047;-84
2022/01/18 04:33:54;;;;;;;6.28;2.13;;;;;;;2.79;100.00;102529.84;5115171;27;20127;-84
2022/01/18 04:36:21;;;;;;;7.00;2.58;;;;;;;2.84;100.00;102541.19;5114686;27;20047;-84
2022/01/18 04:38:48;;;;;;;6.05;1.90;;;;;;;2.64;100.00;102518.31;5132671;27;20058;-84
2022/01/18 04:41:18;;;;;;;3.58;1.70;;;;;;;2.52;100.00;102486.09;5133097;27;20043;-84
2022/01/18 04:48:24;;;;;;;4.45;1.70;;;;;;;2.75;100.00;102538.38;5133330;27;20051;-84
2022/01/18 04:49:20;;;;;;;4.53;1.90;;;;;;;2.40;100.00;102478.91;5132060;27;20047;-84
2022/01/18 04:51:47;;;;;;;6.50;1.90;;;;;;;2.92;100.00;102538.75;5094673;28;20465;-84
2022/01/18 04:54:15;;;;;;;4.28;1.90;;;;;;;2.50;100.00;102493.81;5094609;28;20401;-84
2022/01/18 04:59:11;;;;;;;5.90;1.90;;;;;;;2.66;100.00;102541.63;5112124;28;20044;-84
2022/01/18 05:01:39;;;;;;;5.45;1.98;;;;;;;2.71;100.00;102533.94;5114171;28;20449;-84
2022/01/18 05:04:07;;;;;;;7.15;2.15;;;;;;;2.62;100.00;102507.03;5132906;28;20055;-84
2022/01/18 05:06:34;;;;;;;4.82;1.92;;;;;;;2.54;100.00;102512.88;5132878;28;20396;-84
2022/01/18 05:09:07;;;;;;;4.68;1.73;;;;;;;2.46;100.00;102505.81;5114532;28;20051;-84
2022/01/18 05:11:42;;;;;;;5.85;2.20;;;;;;;2.44;100.00;102499.72;5132725;28;20485;-84
2022/01/18 05:14:27;;;;;;;4.63;1.80;;;;;;;2.28;100.00;102487.25;5133270;28;20051;-84
2022/01/18 05:20:00;;;;;;;5.93;1.65;;;;;;;2.58;100.00;102525.03;5123776;28;20051;-83
2022/01/18 05:25:00;;;;;;;5.15;2.03;;;;;;;2.33;100.00;102483.06;5126003;27;20054;-83
2022/01/18 05:27:27;;;;;;;5.15;1.73;;;;;;;2.68;100.00;102529.59;5112485;27;20058;-83
2022/01/18 05:29:54;;;;;;;3.33;1.60;;;;;;;2.63;100.00;102507.91;5125426;27;20061;-83
2022/01/18 05:32:21;;;;;;;4.03;1.60;;;;;;;2.59;100.00;102488.00;5111693;27;20050;-83
2022/01/18 05:34:48;;;;;;;3.08;1.45;;;;;;;2.46;100.00;102469.59;5111719;27;20043;-83
2022/01/18 05:37:16;;;;;;;4.82;1.90;;;;;;;2.74;100.00;102521.09;5123406;27;20104;-83
2022/01/18 05:39:46;;;;;;;3.95;1.80;;;;;;;2.64;100.00;102512.25;5109294;27;20047;-82
2022/01/18 05:42:13;;;;;;;5.60;1.95;;;;;;;2.56;100.00;102491.38;5128914;27;20043;-84
2022/01/18 05:44:42;;;;;;;4.85;1.85;;;;;;;2.42;100.00;102487.59;5124497;27;20405;-83
2022/01/18 05:47:09;;;;;;;5.53;1.77;;;;;;;2.41;100.00;102491.88;5126109;27;20053;-83
2022/01/18 05:49:36;;;;;;;4.90;1.73;;;;;;;2.70;100.00;102504.63;5128500;27;20074;-84
2022/01/18 05:52:03;;;;;;;3.72;1.60;;;;;;;2.70;100.00;102503.75;5108485;27;20047;-84
2022/01/18 05:54:30;;;;;;;4.15;1.67;;;;;;;2.77;100.00;102536.69;5124526;27;20043;-84
2022/01/18 05:56:56;;;;;;;4.63;1.80;;;;;;;2.59;100.00;102532.81;5131972;27;20047;-84
2022/01/18 05:59:33;;;;;;;4.40;1.60;;;;;;;2.71;100.00;102524.50;5108523;27;20053;-84
2022/01/18 06:02:03;;;;;;;3.85;1.50;;;;;;;2.86;100.00;102529.13;5130559;27;20078;-84
2022/01/18 06:07:20;;;;;;;3.67;1.40;;;;;;;2.76;100.00;102532.34;5080094;27;21249;-84
2022/01/18 06:09:46;;;;;;;5.75;1.70;;;;;;;2.44;100.00;102462.63;5123295;27;20122;-84
2022/01/18 06:12:13;;;;;;;4.07;1.65;;;;;;;2.47;100.00;102466.16;5125912;27;20049;-84
2022/01/18 06:14:40;;;;;;;3.15;1.40;;;;;;;2.69;100.00;102489.94;5102458;27;20382;-83
2022/01/18 06:17:10;;;;;;;3.15;1.40;;;;;;;2.59;100.00;102488.00;5134662;27;20051;-83
2022/01/18 06:19:37;;;;;;;2.67;1.30;;;;;;;2.88;100.00;102501.59;5126332;27;20050;-84
2022/01/18 06:22:03;;;;;;;4.53;1.60;;;;;;;2.72;100.00;102461.56;5113638;27;20058;-85
2022/01/18 06:24:31;;;;;;;3.78;1.50;;;;;;;2.92;100.00;102466.31;5126012;27;20055;-83
2022/01/18 06:27:09;;;;;;;3.63;1.40;;;;;;;2.87;100.00;102520.56;5098304;28;20111;-84
2022/01/18 06:29:37;;;;;;;3.22;1.45;;;;;;;2.61;100.00;102501.84;5123879;27;20119;-84
2022/01/18 06:32:06;;;;;;;2.60;1.33;;;;;;;2.82;100.00;102517.84;5112499;27;20079;-83
2022/01/18 06:34:33;;;;;;;3.53;1.38;;;;;;;2.76;100.00;102524.59;5115825;27;20054;-83
2022/01/18 06:37:00;;;;;;;4.25;1.63;;;;;;;2.60;100.00;102487.13;5110285;27;20154;-84
2022/01/18 06:39:33;;;;;;;4.57;1.77;;;;;;;2.97;100.00;102539.72;5113121;27;20374;-84
2022/01/18 06:42:10;;;;;;;4.75;2.10;;;;;;;3.10;100.00;102521.06;5127391;27;20043;-84
2022/01/18 06:44:37;;;;;;;5.35;1.70;;;;;;;2.85;100.00;102504.09;5125683;27;20133;-84
2022/01/18 06:47:04;;;;;;;3.38;1.50;;;;;;;2.87;100.00;102517.06;5114791;27;20043;-83
2022/01/18 06:49:30;;;;;;;3.90;1.73;;;;;;;2.76;100.00;102541.00;5109391;28;20485;-84
2022/01/18 06:51:57;;;;;;;4.32;1.67;;;;;;;2.53;100.00;102513.69;5107401;27;20491;-84
2022/01/18 06:54:24;;;;;;;4.75;1.85;;;;;;;2.47;100.00;102530.81;5121878;27;20057;-82
2022/01/18 06:56:51;;;;;;;5.43;1.92;;;;;;;2.38;100.00;102527.13;5127786;27;20043;-83
2022/01/18 06:59:19;;;;;;;6.85;2.25;;;;;;;2.41;100.00;102520.31;5114452;27;20051;-84
2022/01/18 07:01:46;;;;;;;6.00;2.17;;;;;;;2.74;100.00;102514.19;5104535;27;20051;-84
2022/01/18 07:04:14;;;;;;;6.03;1.75;;;;;;;2.32;100.00;102496.84;5134960;27;20086;-85
2022/01/18 07:06:41;;;;;;;7.88;2.13;;;;;;;2.43;100.00;102549.69;5110591;27;20070;-84
2022/01/18 07:09:07;;;;;;;7.68;2.90;;;;;;;2.55;100.00;102528.44;5109209;28;20043;-86
2022/01/18 07:11:35;;;;;;;7.10;2.80;;;;;;;2.19;100.00;102520.63;5115188;27;20100;-86
2022/01/18 07:14:02;;;;;;;8.55;3.47;;;;;;;1.84;100.00;102510.22;5114606;27;20044;-86
2022/01/18 07:16:35;;;;;;;9.98;4.20;;;;;;;2.01;100.00;102539.09;5123912;27;20636;-85
2022/01/18 07:19:03;;;;;;;12.15;4.15;;;;;;;1.61;100.00;102514.75;5107170;27;20051;-85
2022/01/18 07:21:30;;;;;;;11.00;4.28;;;;;;;1.44;100.00;102527.22;5112812;27;20050;-85
2022/01/18 07:24:05;;;;;;;9.40;4.30;;;;;;;1.59;100.00;102503.50;5112001;27;20051;-84
2022/01/18 07:26:33;;;;;;;10.13;3.33;;;;;;;2.07;100.00;102534.97;5126931;27;20053;-85
2022/01/18 07:28:59;;;;;;;11.40;3.78;;;;;;;1.95;100.00;102508.81;5107994;27;20503;-84
2022/01/18 07:31:26;;;;;;;10.98;4.18;;;;;;;2.17;100.00;102497.31;5112070;27;20481;-85
2022/01/18 07:33:53;;;;;;;7.95;3.20;;;;;;;2.03;100.00;102486.63;5134528;27;20043;-85
2022/01/18 07:36:20;;;;;;;8.18;3.05;;;;;;;2.23;100.00;102506.94;5133449;27;20054;-85
2022/01/18 07:38:46;;;;;;;9.30;3.50;;;;;;;2.17;100.00;102486.13;5106237;27;20157;-83
2022/01/18 07:41:13;;;;;;;10.30;3.10;;;;;;;2.26;100.00;102500.13;5131571;27;20054;-83
2022/01/18 07:43:41;;;;;;;8.70;3.65;;;;;;;2.50;100.00;102514.50;5133401;27;20135;-83
2022/01/18 07:46:08;;;;;;;9.55;3.20;;;;;;;2.45;100.00;102514.38;5115222;27;20054;-83
2022/01/18 07:48:35;;;;;;;8.10;2.70;;;;;;;2.37;100.00;102494.34;5109276;27;20047;-83
2022/01/18 07:51:02;;;;;;;8.40;2.92;;;;;;;2.28;100.00;102458.81;5112594;27;20054;-83
2022/01/18 07:53:28;;;;;;;7.90;2.75;;;;;;;2.40;100.00;102478.91;5108239;27;20047;-82
2022/01/18 07:55:55;;;;;;;5.85;2.22;;;;;;;2.74;100.00;102501.25;5119617;27;20078;-83
2022/01/18 07:58:22;;;;;;;7.78;3.08;;;;;;;2.57;100.00;102498.31;5114322;27;20047;-83
2022/01/18 08:00:49;;;;;;;6.85;2.72;;;;;;;2.14;100.00;102468.81;5127693;27;20053;-84
2022/01/18 08:03:16;;;;;;;9.02;3.95;;;;;;;2.41;100.00;102468.63;5135806;27;20496;-84
2022/01/18 08:05:45;;;;;;;7.63;2.72;;;;;;;2.90;100.00;102515.44;5133614;27;20083;-83
2022/01/18 08:08:12;;;;;;;9.73;3.08;;;;;;;2.70;100.00;102450.31;5123193;27;20051;-82
2022/01/18 08:10:39;;;;;;;58.65;36.05;;;;;;;2.30;100.00;102477.81;5128214;27;20051;-86
2022/01/18 08:13:06;;;;;;;14.23;6.00;;;;;;;2.26;100.00;102457.91;5133462;27;20549;-84
2022/01/18 08:15:39;;;;;;;11.32;5.00;;;;;;;2.05;100.00;102437.56;5133557;27;20049;-84
2022/01/18 08:18:09;;;;;;;11.50;4.32;;;;;;;2.30;100.00;102485.56;5133720;27;20078;-83
2022/01/18 08:20:36;;;;;;;13.15;5.90;;;;;;;2.24;100.00;102500.94;5132618;27;20055;-83
2022/01/18 08:23:03;;;;;;;12.00;5.80;;;;;;;2.53;100.00;102496.47;5109865;28;20044;-82
2022/01/18 08:25:31;;;;;;;11.13;5.03;;;;;;;2.32;100.00;102452.00;5106877;27;20126;-83
2022/01/18 08:27:58;;;;;;;12.05;4.63;;;;;;;2.49;100.00;102480.84;5114623;27;20591;-83
2022/01/18 08:30:25;;;;;;;9.13;3.08;;;;;;;2.89;100.00;102464.53;5117354;27;20057;-83
2022/01/18 08:32:54;;;;;;;7.88;3.10;;;;;;;3.25;100.00;102470.47;5128244;27;20043;-83
2022/01/18 08:35:23;;;;;;;8.80;2.95;;;;;;;3.39;100.00;102474.19;5100621;28;20058;-84
2022/01/18 08:37:51;;;;;;;7.97;3.10;;;;;;;3.19;100.00;102471.22;5102838;27;20051;-84
2022/01/18 08:40:18;;;;;;;8.05;2.65;;;;;;;3.06;100.00;102495.06;5117388;27;20046;-83
2022/01/18 08:42:45;;;;;;;8.20;2.97;;;;;;;2.84;100.00;102494.59;5132920;27;20050;-83
2022/01/18 08:45:12;;;;;;;7.82;3.05;;;;;;;2.95;100.00;102477.59;5105130;27;20170;-82
2022/01/18 08:47:45;;;;;;;8.43;2.85;;;;;;;2.82;100.00;102455.75;5132697;27;20150;-82
2022/01/18 08:50:12;;;;;;;8.25;3.28;;;;;;;3.10;100.00;102466.72;5123776;27;20047;-82
2022/01/18 08:52:40;;;;;;;8.90;3.55;;;;;;;3.20;100.00;102475.53;5122671;27;20374;-82
2022/01/18 08:55:07;;;;;;;7.75;2.97;;;;;;;2.84;100.00;102414.41;5132182;27;20046;-83
2022/01/18 08:57:34;;;;;;;10.60;4.35;;;;;;;2.39;100.00;102410.84;5133095;28;20576;-82
2022/01/18 09:00:01;;;;;;;9.35;4.00;;;;;;;2.98;100.00;102475.06;5125133;27;20050;-83
2022/01/18 09:02:27;;;;;;;10.77;4.75;;;;;;;2.88;100.00;102464.50;5098823;28;20043;-82
2022/01/18 09:04:54;;;;;;;9.93;4.10;;;;;;;3.15;100.00;102439.22;5131659;28;20058;-82
2022/01/18 09:07:23;;;;;;;10.27;3.58;;;;;;;2.94;100.00;102415.44;5127557;28;20402;-82
2022/01/18 09:09:55;;;;;;;12.68;4.88;;;;;;;2.98;100.00;102451.78;5118332;28;20058;-82
2022/01/18 09:12:21;;;;;;;10.40;3.55;;;;;;;2.91;100.00;102416.28;5111618;28;20551;-83
2022/01/18 09:14:49;;;;;;;10.60;4.05;;;;;;;3.06;100.00;102418.28;5127307;28;20134;-82
2022/01/18 09:17:15;;;;;;;10.65;4.05;;;;;;;2.93;100.00;102383.53;5114795;28;20495;-83
2022/01/18 09:19:42;;;;;;;10.27;4.10;;;;;;;3.33;100.00;102418.00;5110275;28;20469;-82
2022/01/18 09:22:09;;;;;;;12.27;4.22;;;;;;;2.92;100.00;102389.56;5107426;28;20122;-82
2022/01/18 09:24:36;;;;;;;12.75;4.35;;;;;;;3.15;100.00;102409.84;5131614;28;20046;-82
2022/01/18 09:27:03;;;;;;;13.15;5.25;;;;;;;3.33;100.00;102425.75;5132680;28;20053;-83
2022/01/18 09:29:30;;;;;;;11.27;4.57;;;;;;;3.22;100.00;102381.53;5130753;28;20047;-83
2022/01/18 09:31:57;;;;;;;12.77;4.68;;;;;;;3.69;100.00;102436.78;5119111;28;20134;-82
2022/01/18 09:34:24;;;;;;;12.70;4.72;;;;;;;3.74;100.00;102419.59;5114254;28;20087;-82
2022/01/18 09:36:51;;;;;;;9.80;3.80;;;;;;;3.74;100.00;102391.97;5112629;28;20082;-82
2022/01/18 09:39:18;;;;;;;9.60;3.67;;;;;;;3.85;100.00;102384.38;5113336;28;20058;-82
2022/01/18 09:41:50;;;;;;;9.07;3.63;;;;;;;4.08;100.00;102409.81;5093606;28;20082;-83
2022/01/18 09:44:18;;;;;;;9.05;3.20;;;;;;;4.25;100.00;102403.16;5124709;28;20055;-83
2022/01/18 09:46:47;;;;;;;18.58;6.15;;;;;;;4.32;100.00;102385.94;5112960;28;20047;-83
2022/01/18 09:49:14;;;;;;;11.07;3.65;;;;;;;4.18;100.00;102359.84;5104699;28;20061;-82
2022/01/18 09:51:41;;;;;;;9.15;3.08;;;;;;;4.16;100.00;102349.44;5093501;28;20465;-86
2022/01/18 09:54:08;;;;;;;7.38;2.83;;;;;;;4.57;100.00;102408.81;5126184;28;20074;-83
2022/01/18 09:56:34;;;;;;;9.00;3.42;;;;;;;4.64;100.00;102421.84;5113899;28;20634;-83
2022/01/18 09:59:02;;;;;;;7.05;2.80;;;;;;;4.50;100.00;102382.78;5130272;28;20069;-83
2022/01/18 10:01:30;;;;;;;9.18;3.85;;;;;;;4.78;100.00;102401.28;5111174;28;20052;-83
2022/01/18 10:04:18;;;;;;;8.45;3.28;;;;;;;4.96;100.00;102419.72;5111516;28;20143;-82
2022/01/18 10:06:55;;;;;;;10.10;3.58;;;;;;;4.91;100.00;102411.00;5111041;28;20090;-85
2022/01/18 10:09:23;;;;;;;9.85;3.60;;;;;;;4.64;100.00;102364.78;5114849;28;20057;-82
2022/01/18 10:12:13;;;;;;;8.13;3.38;;;;;;;4.98;100.00;102401.56;5135783;27;20047;-83
2022/01/18 10:14:58;;;;;;;10.18;4.38;;;;;;;4.65;100.00;102366.53;5118392;27;20054;-83
2022/01/18 10:17:37;;;;;;;7.28;2.38;;;;;;;5.15;100.00;102389.63;5117824;27;20039;-83
2022/01/18 10:20:19;;;;;;;5.43;2.20;;;;;;;5.17;100.00;102361.09;5112487;28;20086;-84
2022/01/18 10:22:49;;;;;;;6.13;2.10;;;;;;;5.48;100.00;102396.91;5134995;27;20126;-85
2022/01/18 10:25:24;;;;;;;7.85;2.08;;;;;;;5.53;100.00;102385.72;5134982;27;20386;-84
2022/01/18 10:28:00;;;;;;;5.90;2.00;;;;;;;5.66;100.00;102375.44;5134933;27;20043;-84
2022/01/18 10:30:43;;;;;;;7.07;2.10;;;;;;;6.05;100.00;102400.06;5124383;27;20052;-83
2022/01/18 10:33:15;;;;;;;7.30;2.08;;;;;;;5.82;100.00;102376.44;5131214;27;20088;-83
2022/01/18 10:36:01;;;;;;;10.45;3.00;;;;;;;5.79;100.00;102401.53;5130436;27;20051;-83
2022/01/18 10:38:27;;;;;;;9.35;2.85;;;;;;;5.73;100.00;102368.56;5123082;27;20047;-83
2022/01/18 10:40:55;;;;;;;8.43;3.00;;;;;;;5.66;100.00;102340.78;5112103;27;20051;-83
2022/01/18 10:43:24;;;;;;;7.80;2.70;;;;;;;6.38;100.00;102389.91;5116713;27;20039;-83
2022/01/18 10:46:10;;;;;;;8.02;2.53;;;;;;;6.36;100.00;102384.69;5134762;27;20054;-83
2022/01/18 10:48:48;;;;;;;8.82;2.53;;;;;;;6.27;100.00;102388.09;5117032;27;20634;-84
2022/01/18 10:51:25;;;;;;;9.40;3.25;;;;;;;6.26;100.00;102380.28;5114241;28;20067;-84
2022/01/18 10:54:01;;;;;;;10.82;3.28;;;;;;;6.29;100.00;102367.28;5132127;27;20374;-83
2022/01/18 10:56:44;;;;;;;7.75;2.75;;;;;;;6.62;100.00;102392.66;5125827;27;20049;-83
2022/01/18 10:59:21;;;;;;;8.68;2.40;;;;;;;6.54;100.00;102376.09;5120792;27;20630;-84
2022/01/18 11:02:04;;;;;;;10.05;2.63;;;;;;;6.71;100.00;102403.94;5096934;28;20043;-84
2022/01/18 11:04:31;;;;;;;8.25;2.20;;;;;;;6.78;100.00;102372.78;5117484;27;20046;-83
2022/01/18 11:07:01;;;;;;;9.13;2.53;;;;;;;6.94;100.00;102401.44;5114974;27;20047;-83
2022/01/18 11:09:28;;;;;;;8.18;2.35;;;;;;;6.78;100.00;102400.50;5111610;27;20047;-83
2022/01/18 11:11:54;;;;;;;6.63;2.20;;;;;;;6.69;100.00;102361.44;5134571;27;20458;-83
2022/01/18 11:14:23;;;;;;;8.30;2.50;;;;;;;6.57;100.00;102357.03;5116588;27;20043;-84
2022/01/18 11:16:51;;;;;;;8.52;2.40;;;;;;;6.74;100.00;102363.19;5134880;27;20464;-83
2022/01/18 11:21:55;;;;;;;12.15;3.83;;;;;;;6.71;100.00;102357.09;5132333;27;20065;-83
2022/01/18 11:24:22;;;;;;;10.73;2.08;;;;;;;7.10;100.00;102353.78;5123510;27;20058;-83
2022/01/18 11:26:49;;;;;;;9.35;2.38;;;;;;;7.20;100.00;102355.53;5095042;28;20071;-82
2022/01/18 11:29:18;;;;;;;7.75;2.55;;;;;;;7.28;100.00;102352.94;5114448;28;20048;-83
2022/01/18 11:31:51;;;;;;;11.95;3.13;;;;;;;6.88;100.00;102295.53;5111418;27;20053;-84
2022/01/18 11:34:29;;;;;;;9.05;2.67;;;;;;;7.12;100.00;102352.06;5133690;27;20054;-84
2022/01/18 11:37:08;;;;;;;10.48;3.65;;;;;;;7.04;100.00;102345.94;5114200;27;20047;-83
2022/01/18 11:39:35;;;;;;;10.57;3.25;;;;;;;7.08;100.00;102328.59;5102620;27;20047;-84
2022/01/18 11:42:12;;;;;;;12.13;3.58;;;;;;;7.53;100.00;102329.53;5095512;28;20495;-83
2022/01/18 11:44:41;;;;;;;9.30;2.83;;;;;;;7.64;100.00;102316.50;5128923;27;20103;-83
2022/01/18 11:47:08;;;;;;;14.52;3.35;;;;;;;7.67;100.00;102285.22;5115788;27;20495;-84
2022/01/18 11:49:45;;;;;;;9.52;3.05;;;;;;;7.79;100.00;102322.56;5097853;27;20377;-83
2022/01/18 11:52:39;;;;;;;9.65;2.70;;;;;;;7.80;100.00;102316.47;5133716;27;20108;-83
2022/01/18 11:55:06;;;;;;;9.30;3.30;;;;;;;7.92;100.00;102289.53;5125989;27;20048;-83
2022/01/18 11:57:34;;;;;;;16.30;5.07;;;;;;;7.81;100.00;102304.31;5113984;27;20391;-83
2022/01/18 12:00:04;;;;;;;15.77;4.65;;;;;;;8.06;100.00;102302.53;5115304;27;20046;-83
2022/01/18 12:02:44;;;;;;;11.75;4.25;;;;;;;8.23;100.00;102302.47;5111410;27;20047;-83
2022/01/18 12:05:14;;;;;;;13.38;3.85;;;;;;;7.97;100.00;102246.03;5132145;27;20480;-85
2022/01/18 12:07:43;;;;;;;11.63;4.60;;;;;;;8.10;100.00;102286.00;5114836;27;20092;-84
2022/01/18 12:10:21;;;;;;;12.73;4.30;;;;;;;8.22;100.00;102289.47;5124594;27;20137;-82
2022/01/18 12:12:50;;;;;;;17.83;5.32;;;;;;;7.92;100.00;102258.22;5108991;27;20070;-82
2022/01/18 12:15:22;;;;;;;17.75;4.60;;;;;;;7.97;100.00;102277.34;5134175;27;20051;-83
2022/01/18 12:17:53;;;;;;;14.57;4.60;;;;;;;8.12;100.00;102275.56;5108766;28;20054;-85
2022/01/18 12:20:32;;;;;;;15.73;5.07;;;;;;;7.98;100.00;102252.13;5112694;28;20499;-85
2022/01/18 12:23:04;;;;;;;13.32;4.10;;;;;;;8.20;100.00;102252.06;5118835;27;20039;-84
2022/01/18 12:25:35;;;;;;;10.83;3.73;;;;;;;8.21;100.00;102220.75;5114000;27;20058;-84
2022/01/18 12:28:48;;;;;;;14.77;5.10;;;;;;;8.35;100.00;102249.38;5115525;27;20051;-84
2022/01/18 12:34:34;;;;;;;13.50;5.45;;;;;;;8.38;100.00;102219.81;5132414;27;20085;-82
2022/01/18 12:37:21;;;;;;;17.65;5.53;;;;;;;8.63;100.00;102226.66;5130504;27;20039;-82
2022/01/18 12:39:54;;;;;;;19.13;6.22;;;;;;;8.80;100.00;102223.06;5114026;27;20443;-83
2022/01/18 12:44:59;;;;;;;18.50;7.13;;;;;;;8.52;100.00;102195.41;5132396;27;20130;-83